CDT,Max TemperatureF,Mean TemperatureF,Min TemperatureF,Max Dew PointF,MeanDew PointF,Min DewpointF,Max Humidity, Mean Humidity, Min Humidity, Max Sea Level PressureIn, Mean Sea Level PressureIn, Min Sea Level PressureIn, Max VisibilityMiles, Mean VisibilityMiles, Min VisibilityMiles, Max Wind SpeedMPH, Mean Wind SpeedMPH, Max Gust SpeedMPH,PrecipitationIn, CloudCover, Events, WindDirDegrees
2012-10-1,78,74,69,75,72,67,100,93,83,29.70,29.65,29.60,10,8,1,21,10,32,0.96,7,Rain,164
2012-10-2,76,68,62,65,63,60,98,81,66,30.01,29.85,29.71,10,10,9,10,5,,0.00,5,,253
2012-10-3,76,68,59,63,60,58,96,80,56,30.17,30.11,30.02,10,10,10,6,3,,0.00,1,,36
2012-10-4,82,72,62,68,64,62,100,88,55,30.25,30.20,30.15,10,5,0,8,5,,0.00,4,Fog,27
2012-10-5,81,72,64,72,67,64,100,93,73,30.16,30.12,30.01,10,5,0,9,4,,0.13,6,Fog-Rain,45
2012-10-6,86,76,66,72,67,63,100,91,46,30.02,29.99,29.91,10,4,0,8,2,,0.00,3,Fog,334
2012-10-7,78,68,59,65,61,54,100,83,62,30.08,30.03,29.98,10,10,10,10,7,,0.00,2,,332
2012-10-8,76,65,54,58,54,50,88,71,50,30.10,30.06,30.01,10,10,10,10,6,,0.00,1,,347
2012-10-9,75,66,57,61,58,52,94,81,57,30.13,30.09,30.04,10,10,8,8,4,,0.00,6,,24
2012-10-10,80,67,55,63,59,54,97,82,49,30.16,30.12,30.08,10,9,2,9,2,,0.00,1,,341
2012-10-11,81,68,55,63,60,54,96,76,48,30.25,30.20,30.15,10,10,9,8,2,,0.00,0,Rain,41
2012-10-12,84,70,57,67,62,56,96,75,48,30.27,30.21,30.17,10,10,8,8,2,,0.00,0,,354
2012-10-13,82,72,61,65,63,60,94,77,55,30.27,30.21,30.17,10,10,10,10,6,,0.00,0,,67
2012-10-14,83,72,63,67,64,61,96,79,52,30.18,30.11,30.01,10,10,10,9,5,,0.00,1,,112
2012-10-15,83,73,62,74,65,52,100,91,46,30.00,29.96,29.87,10,5,0,12,2,17,0.00,4,Fog,269
2012-10-16,74,62,50,56,49,43,88,62,34,30.00,29.93,29.88,10,10,10,16,6,,0.00,0,,18
2012-10-17,79,68,56,59,55,49,89,69,36,29.94,29.87,29.81,10,10,10,10,4,,0.00,1,,130
2012-10-18,72,66,60,68,63,58,100,92,78,29.87,29.84,29.79,10,7,0,15,5,18,0.60,5,Fog-Rain,208
2012-10-19,77,63,50,59,49,39,100,70,28,29.92,29.87,29.82,10,8,0,10,2,17,12.34,0,Fog,272
2012-10-20,75,60,46,52,47,43,90,66,33,30.01,29.95,29.89,10,10,10,12,2,,0.00,0,,299
2012-10-21,78,62,46,52,49,44,94,67,35,30.17,30.09,30.01,10,10,10,8,3,,0.00,0,,10
2012-10-22,80,65,50,57,51,48,90,67,32,30.19,30.11,29.60,10,10,10,10,5,,0.00,0,,56
2012-10-23,80,64,49,60,56,47,92,74,47,30.16,30.10,30.05,10,10,10,8,5,,0.00,1,,62
2012-10-24,81,68,55,63,59,55,96,74,46,30.14,30.07,30.02,10,10,10,12,5,,0.00,1,,49
2012-10-25,83,70,58,66,61,57,94,74,49,30.04,29.99,29.95,10,10,10,9,6,,0.00,1,,44
2012-10-26,83,72,62,65,60,56,95,74,42,29.99,29.92,29.87,10,10,10,13,6,,0.00,0,,15
2012-10-27,70,61,53,61,55,48,94,81,59,29.90,29.86,29.80,10,10,10,15,10,21,0.00,5,,315
2012-10-28,62,55,48,48,45,38,88,73,53,29.97,29.87,29.83,10,10,10,20,10,24,0.00,6,,319
2012-10-29,60,50,41,37,33,30,76,54,32,30.02,29.95,29.88,10,10,10,23,11,28,0.00,0,,307
2012-10-30,63,50,37,35,30,24,74,50,25,29.96,29.92,29.86,10,10,10,23,10,30,0.03,0,,281
2012-10-31,72,56,41,50,42,35,83,59,36,30.02,29.97,29.93,10,10,10,30,7,76,0.00,1,,255